createdAt,value
2016-11-17T00:00:05.873Z,11.3
2016-11-17T00:00:15.873Z,11.4
2016-11-17T00:00:25.863Z,11.3
2016-11-17T00:00:35.858Z,11.4
2016-11-17T00:00:45.855Z,11.4
2016-11-17T00:00:55.838Z,11.4
2016-11-17T00:01:05.840Z,11.3
2016-11-17T00:01:15.827Z,11.3
2016-11-17T00:01:25.831Z,11.4
2016-11-17T00:01:35.827Z,11.4
2016-11-17T00:01:45.813Z,11.4
2016-11-17T00:01:55.811Z,11.4
2016-11-17T00:02:05.801Z,11.3
2016-11-17T00:02:15.801Z,11.4
2016-11-17T00:02:25.796Z,11.4
2016-11-17T00:02:35.781Z,11.4
2016-11-17T00:02:45.782Z,11.3
2016-11-17T00:02:55.773Z,11.4
2016-11-17T00:03:05.774Z,11.4
2016-11-17T00:03:15.760Z,11.3
2016-11-17T00:03:25.761Z,11.3
2016-11-17T00:03:35.751Z,11.3
2016-11-17T00:03:45.747Z,11.3
2016-11-17T00:03:55.743Z,11.3
2016-11-17T00:04:05.739Z,11.3
2016-11-17T00:04:15.730Z,11.3
2016-11-17T00:04:25.726Z,11.2
2016-11-17T00:04:35.723Z,11.3
2016-11-17T00:04:45.712Z,11.3
2016-11-17T00:04:55.710Z,11.3
2016-11-17T00:05:05.701Z,11.3
2016-11-17T00:05:15.698Z,11.3
2016-11-17T00:05:25.693Z,11.3
2016-11-17T00:05:35.679Z,11.3
2016-11-17T00:05:45.674Z,11.3
2016-11-17T00:05:55.674Z,11.3
2016-11-17T00:06:05.659Z,11.3
2016-11-17T00:06:15.661Z,11.3
2016-11-17T00:06:25.651Z,11.3
2016-11-17T00:06:35.651Z,11.2
2016-11-17T00:06:45.645Z,11.3
2016-11-17T00:06:55.641Z,11.2
2016-11-17T00:07:05.629Z,11.3
2016-11-17T00:07:15.626Z,11.2
2016-11-17T00:07:25.623Z,11.3
2016-11-17T00:07:35.616Z,11.3
2016-11-17T00:07:45.610Z,11.2
2016-11-17T00:07:55.603Z,11.2
2016-11-17T00:08:05.599Z,11.2
2016-11-17T00:08:15.594Z,11.2
2016-11-17T00:08:25.588Z,11.1
2016-11-17T00:08:35.589Z,11.2
2016-11-17T00:08:45.575Z,11.2
2016-11-17T00:08:55.570Z,11.2
2016-11-17T00:09:05.568Z,11.2
2016-11-17T00:09:15.552Z,11.2
2016-11-17T00:09:25.553Z,11.1
2016-11-17T00:09:35.548Z,11.2
2016-11-17T00:09:45.539Z,11.2
2016-11-17T00:09:55.534Z,11.2
2016-11-17T00:10:05.529Z,11.2
2016-11-17T00:10:15.519Z,11.2
2016-11-17T00:10:25.519Z,11.2
2016-11-17T00:10:35.503Z,11.2
2016-11-17T00:10:45.508Z,11.2
2016-11-17T00:10:55.502Z,11.1
2016-11-17T00:11:05.495Z,11.2
2016-11-17T00:11:15.485Z,11.1
2016-11-17T00:11:25.479Z,11.1
2016-11-17T00:11:35.478Z,11.1
2016-11-17T00:11:45.470Z,11.1
2016-11-17T00:11:55.460Z,11.2
2016-11-17T00:12:05.451Z,11.1
2016-11-17T00:12:15.444Z,11.1
2016-11-17T00:12:25.446Z,11.1
2016-11-17T00:12:35.443Z,11.2
2016-11-17T00:12:45.433Z,11.1
2016-11-17T00:12:55.432Z,11.1
2016-11-17T00:13:05.419Z,11.1
2016-11-17T00:13:15.419Z,11.1
2016-11-17T00:13:25.415Z,11.2
2016-11-17T00:13:35.403Z,11.1
2016-11-17T00:13:45.394Z,11.1
2016-11-17T00:13:55.397Z,11.2
2016-11-17T00:14:05.392Z,11.1
2016-11-17T00:14:15.385Z,11
2016-11-17T00:14:25.375Z,11.2
2016-11-17T00:14:35.367Z,11.1
2016-11-17T00:14:45.365Z,11.2
2016-11-17T00:14:55.363Z,11.1
2016-11-17T00:15:05.345Z,11.1
2016-11-17T00:15:15.344Z,11.1
2016-11-17T00:15:25.345Z,11
2016-11-17T00:15:35.338Z,11
2016-11-17T00:15:45.331Z,11
2016-11-17T00:15:55.328Z,11
2016-11-17T00:16:05.320Z,11
2016-11-17T00:16:15.309Z,11
2016-11-17T00:16:25.299Z,11
2016-11-17T00:16:35.299Z,11
2016-11-17T00:16:45.296Z,11
2016-11-17T00:16:55.292Z,11.1
2016-11-17T00:17:05.293Z,11.1
2016-11-17T00:17:15.278Z,11.1
2016-11-17T00:17:25.267Z,11
2016-11-17T00:17:35.267Z,11.1
2016-11-17T00:17:45.264Z,11.1
2016-11-17T00:17:55.250Z,11.1
2016-11-17T00:18:05.252Z,11
2016-11-17T00:18:15.239Z,11.1
2016-11-17T00:18:25.240Z,11.1
2016-11-17T00:18:35.229Z,11
2016-11-17T00:18:45.225Z,11
2016-11-17T00:18:55.223Z,11
2016-11-17T00:19:05.209Z,11
2016-11-17T00:19:15.212Z,11.1
2016-11-17T00:19:25.203Z,11
2016-11-17T00:19:35.200Z,11
2016-11-17T00:19:45.191Z,11
2016-11-17T00:19:55.188Z,11
2016-11-17T00:20:05.176Z,11
2016-11-17T00:20:15.177Z,11
2016-11-17T00:20:25.170Z,11
2016-11-17T00:20:35.165Z,11
2016-11-17T00:20:45.164Z,11
2016-11-17T00:20:55.153Z,11
2016-11-17T00:21:05.143Z,11
2016-11-17T00:21:15.139Z,11
2016-11-17T00:21:25.137Z,11
2016-11-17T00:21:35.129Z,11
2016-11-17T00:21:45.124Z,11
2016-11-17T00:21:55.117Z,11
2016-11-17T00:22:05.114Z,11
2016-11-17T00:22:15.099Z,11
2016-11-17T00:22:25.095Z,11
2016-11-17T00:22:35.097Z,11
2016-11-17T00:22:45.090Z,11
2016-11-17T00:22:55.081Z,11
2016-11-17T00:23:05.077Z,11
2016-11-17T00:23:15.065Z,11
2016-11-17T00:23:25.067Z,11
2016-11-17T00:23:35.052Z,11
2016-11-17T00:23:45.055Z,11.1
2016-11-17T00:23:55.042Z,11.1
2016-11-17T00:24:05.043Z,11
2016-11-17T00:24:15.036Z,11
2016-11-17T00:24:25.031Z,11
2016-11-17T00:24:35.023Z,11
2016-11-17T00:24:45.021Z,11.1
2016-11-17T00:24:55.007Z,11
2016-11-17T00:25:05.009Z,11.1
2016-11-17T00:25:14.996Z,11
2016-11-17T00:25:24.995Z,11
2016-11-17T00:25:34.985Z,11.1
2016-11-17T00:25:44.982Z,11.1
2016-11-17T00:25:54.968Z,11
2016-11-17T00:26:04.971Z,11.1
2016-11-17T00:26:14.967Z,11.1
2016-11-17T00:26:24.960Z,11
2016-11-17T00:26:34.950Z,11
2016-11-17T00:26:44.950Z,11
2016-11-17T00:26:54.938Z,11
2016-11-17T00:27:04.939Z,11.1
2016-11-17T00:27:14.932Z,11
2016-11-17T00:27:24.927Z,11
2016-11-17T00:27:34.922Z,11.1
2016-11-17T00:27:44.913Z,11
2016-11-17T00:27:54.907Z,11
2016-11-17T00:28:04.893Z,11.1
2016-11-17T00:28:14.897Z,11.1
2016-11-17T00:28:24.890Z,11
2016-11-17T00:28:34.883Z,11
2016-11-17T00:28:44.879Z,11
2016-11-17T00:28:54.891Z,11
2016-11-17T00:29:04.870Z,11.1
2016-11-17T00:29:14.864Z,11.1
2016-11-17T00:29:24.853Z,11.1
2016-11-17T00:29:34.849Z,10.9
2016-11-17T00:29:44.843Z,11.1
2016-11-17T00:29:54.839Z,11
2016-11-17T00:30:04.835Z,11
2016-11-17T00:30:14.827Z,11
2016-11-17T00:30:24.824Z,11
2016-11-17T00:30:34.818Z,11
2016-11-17T00:30:44.805Z,11
2016-11-17T00:30:54.801Z,11
2016-11-17T00:31:04.794Z,11
2016-11-17T00:31:14.787Z,11
2016-11-17T00:31:24.785Z,11
2016-11-17T00:31:34.781Z,11
2016-11-17T00:31:44.777Z,11
2016-11-17T00:31:54.771Z,10.9
2016-11-17T00:32:04.763Z,11
2016-11-17T00:32:14.752Z,11
2016-11-17T00:32:24.752Z,11
2016-11-17T00:32:34.744Z,11
2016-11-17T00:32:44.741Z,11.1
2016-11-17T00:32:54.732Z,11
2016-11-17T00:33:04.729Z,11
2016-11-17T00:33:14.722Z,11
2016-11-17T00:33:24.717Z,11
2016-11-17T00:33:34.712Z,11
2016-11-17T00:33:44.704Z,11
2016-11-17T00:33:54.701Z,11
2016-11-17T00:34:04.688Z,11
2016-11-17T00:34:14.683Z,11
2016-11-17T00:34:24.677Z,11
2016-11-17T00:34:34.677Z,11
2016-11-17T00:34:44.668Z,11
2016-11-17T00:34:54.668Z,11
2016-11-17T00:35:04.660Z,11
2016-11-17T00:35:14.647Z,11.1
2016-11-17T00:35:24.644Z,11
2016-11-17T00:35:34.642Z,11
2016-11-17T00:35:44.636Z,11
2016-11-17T00:35:54.628Z,11
2016-11-17T00:36:04.623Z,10.9
2016-11-17T00:36:14.618Z,11
2016-11-17T00:36:24.612Z,10.9
2016-11-17T00:36:34.608Z,10.9
2016-11-17T00:36:44.603Z,11
2016-11-17T00:36:54.593Z,10.9
2016-11-17T00:37:04.596Z,10.9
2016-11-17T00:37:14.582Z,10.9
2016-11-17T00:37:24.577Z,11
2016-11-17T00:37:34.570Z,10.9
2016-11-17T00:37:44.565Z,11
2016-11-17T00:37:54.561Z,10.9
2016-11-17T00:38:04.556Z,11
2016-11-17T00:38:14.539Z,10.9
2016-11-17T00:38:24.541Z,11
2016-11-17T00:38:34.534Z,11
2016-11-17T00:38:44.528Z,11
2016-11-17T00:38:54.522Z,10.9
2016-11-17T00:39:04.519Z,10.9
2016-11-17T00:39:14.515Z,10.8
2016-11-17T00:39:24.502Z,10.9
2016-11-17T00:39:34.505Z,11
2016-11-17T00:39:44.494Z,10.9
2016-11-17T00:39:54.493Z,10.9
2016-11-17T00:40:04.484Z,10.9
2016-11-17T00:40:14.473Z,10.9
2016-11-17T00:40:24.473Z,10.9
2016-11-17T00:40:34.468Z,10.9
2016-11-17T00:40:44.463Z,10.9
2016-11-17T00:40:54.456Z,11
2016-11-17T00:41:04.451Z,10.8
2016-11-17T00:41:14.446Z,10.9
2016-11-17T00:41:24.438Z,10.9
2016-11-17T00:41:34.437Z,10.9
2016-11-17T00:41:44.423Z,10.9
2016-11-17T00:41:54.414Z,10.9
2016-11-17T00:42:04.417Z,10.8
2016-11-17T00:42:14.410Z,10.8
2016-11-17T00:42:24.404Z,10.8
2016-11-17T00:42:34.393Z,10.9
2016-11-17T00:42:44.391Z,10.9
2016-11-17T00:42:54.387Z,10.9
2016-11-17T00:43:04.382Z,10.8
2016-11-17T00:43:14.369Z,10.8
2016-11-17T00:43:24.370Z,10.8
2016-11-17T00:43:34.361Z,10.9
2016-11-17T00:43:44.359Z,10.9
2016-11-17T00:43:54.350Z,10.9
2016-11-17T00:44:04.347Z,10.8
2016-11-17T00:44:14.331Z,10.8
2016-11-17T00:44:24.335Z,10.8
2016-11-17T00:44:34.329Z,10.8
2016-11-17T00:44:44.317Z,10.8
2016-11-17T00:44:54.311Z,10.8
2016-11-17T00:45:04.311Z,10.8
2016-11-17T00:45:14.302Z,10.8
2016-11-17T00:45:24.297Z,10.8
2016-11-17T00:45:34.294Z,10.8
2016-11-17T00:45:44.286Z,10.9
2016-11-17T00:45:54.282Z,10.9
2016-11-17T00:46:04.275Z,10.9
2016-11-17T00:46:14.272Z,10.8
2016-11-17T00:46:24.264Z,10.8
2016-11-17T00:46:34.259Z,10.8
2016-11-17T00:46:44.251Z,10.8
2016-11-17T00:46:54.240Z,10.8
2016-11-17T00:47:04.238Z,10.9
2016-11-17T00:47:14.229Z,10.9
2016-11-17T00:47:24.232Z,10.8
2016-11-17T00:47:34.225Z,10.8
2016-11-17T00:47:44.218Z,10.8
2016-11-17T00:47:54.206Z,10.8
2016-11-17T00:48:04.203Z,10.8
2016-11-17T00:48:14.198Z,10.9
2016-11-17T00:48:24.184Z,10.9
2016-11-17T00:48:34.183Z,10.8
2016-11-17T00:48:44.173Z,10.8
2016-11-17T00:48:54.166Z,10.7
2016-11-17T00:49:04.169Z,10.8
2016-11-17T00:49:14.160Z,10.7
2016-11-17T00:49:24.161Z,10.9
2016-11-17T00:49:34.151Z,10.8
2016-11-17T00:49:44.149Z,10.8
2016-11-17T00:49:54.133Z,10.8
2016-11-17T00:50:04.136Z,10.9
2016-11-17T00:50:14.129Z,10.8
2016-11-17T00:50:24.124Z,10.9
2016-11-17T00:50:34.121Z,10.8
2016-11-17T00:50:44.114Z,10.9
2016-11-17T00:50:54.098Z,10.8
2016-11-17T00:51:04.100Z,10.8
2016-11-17T00:51:14.088Z,10.8
2016-11-17T00:51:24.083Z,10.8
2016-11-17T00:51:34.084Z,10.8
2016-11-17T00:51:44.079Z,10.8
2016-11-17T00:51:54.073Z,10.8
2016-11-17T00:52:04.058Z,10.8
2016-11-17T00:52:14.055Z,10.8
2016-11-17T00:52:24.044Z,10.8
2016-11-17T00:52:34.045Z,10.8
2016-11-17T00:52:44.034Z,10.8
2016-11-17T00:52:54.033Z,10.8
2016-11-17T00:53:04.031Z,10.7
2016-11-17T00:53:14.027Z,10.8
2016-11-17T00:53:24.014Z,10.8
2016-11-17T00:53:34.013Z,10.7
2016-11-17T00:53:44.002Z,10.8
2016-11-17T00:53:53.996Z,10.7
2016-11-17T00:54:03.997Z,10.8
2016-11-17T00:54:13.991Z,10.8
2016-11-17T00:54:23.985Z,10.7
2016-11-17T00:54:33.977Z,10.7
2016-11-17T00:54:43.969Z,10.8
2016-11-17T00:54:53.962Z,10.8
2016-11-17T00:55:03.959Z,10.7
2016-11-17T00:55:13.952Z,10.7
2016-11-17T00:55:23.946Z,10.7
2016-11-17T00:55:33.935Z,10.7
2016-11-17T00:55:43.937Z,10.6
2016-11-17T00:55:53.936Z,10.7
2016-11-17T00:56:03.925Z,10.8
2016-11-17T00:56:13.919Z,10.8
2016-11-17T00:56:23.917Z,10.7
2016-11-17T00:56:33.908Z,10.7
2016-11-17T00:56:43.898Z,10.7
2016-11-17T00:56:53.897Z,10.8
2016-11-17T00:57:03.893Z,10.7
2016-11-17T00:57:13.886Z,10.7
2016-11-17T00:57:23.883Z,10.7
2016-11-17T00:57:33.874Z,10.7
2016-11-17T00:57:43.865Z,10.7
2016-11-17T00:57:53.863Z,10.7
2016-11-17T00:58:03.850Z,10.7
2016-11-17T00:58:13.848Z,10.7
2016-11-17T00:58:23.844Z,10.8
2016-11-17T00:58:33.840Z,10.7
2016-11-17T00:58:43.826Z,10.7
2016-11-17T00:58:53.828Z,10.7
2016-11-17T00:59:03.822Z,10.7
2016-11-17T00:59:13.814Z,10.7
2016-11-17T00:59:23.809Z,10.7
2016-11-17T00:59:33.801Z,10.7
2016-11-17T00:59:43.792Z,10.7
2016-11-17T00:59:53.794Z,10.7
2016-11-17T01:00:03.788Z,10.6
2016-11-17T01:00:13.780Z,10.7
2016-11-17T01:00:23.775Z,10.6
2016-11-17T01:00:33.765Z,10.7
2016-11-17T01:00:43.762Z,10.7
2016-11-17T01:00:53.755Z,10.7
2016-11-17T01:01:03.748Z,10.7
2016-11-17T01:01:13.744Z,10.7
2016-11-17T01:01:23.737Z,10.7
2016-11-17T01:01:33.735Z,10.6
2016-11-17T01:01:43.725Z,10.7
2016-11-17T01:01:53.723Z,10.7
2016-11-17T01:02:03.710Z,10.7
2016-11-17T01:02:13.709Z,10.7
2016-11-17T01:02:23.706Z,10.7
2016-11-17T01:02:33.701Z,10.6
2016-11-17T01:02:43.694Z,10.7
2016-11-17T01:02:53.685Z,10.6
2016-11-17T01:03:03.681Z,10.6
2016-11-17T01:03:13.670Z,10.6
2016-11-17T01:03:23.671Z,10.6
2016-11-17T01:03:33.657Z,10.6
2016-11-17T01:03:43.658Z,10.7
2016-11-17T01:03:53.653Z,10.6
2016-11-17T01:04:03.649Z,10.6
2016-11-17T01:04:13.641Z,10.6
2016-11-17T01:04:23.630Z,10.7
2016-11-17T01:04:33.632Z,10.6
2016-11-17T01:04:43.614Z,10.6
2016-11-17T01:04:53.618Z,10.6
2016-11-17T01:05:03.609Z,10.6
2016-11-17T01:05:13.607Z,10.6
2016-11-17T01:05:23.599Z,10.6
2016-11-17T01:05:33.594Z,10.6
2016-11-17T01:05:43.588Z,10.7
2016-11-17T01:05:53.572Z,10.6
2016-11-17T01:06:03.574Z,10.6
2016-11-17T01:06:13.567Z,10.7
2016-11-17T01:06:23.563Z,10.6
2016-11-17T01:06:33.557Z,10.7
2016-11-17T01:06:43.554Z,10.6
2016-11-17T01:06:53.539Z,10.6
2016-11-17T01:07:03.539Z,10.6
2016-11-17T01:07:13.535Z,10.6
2016-11-17T01:07:23.521Z,10.6
2016-11-17T01:07:33.526Z,10.5
2016-11-17T01:07:43.520Z,10.6
2016-11-17T01:07:53.514Z,10.6
2016-11-17T01:08:03.506Z,10.6
2016-11-17T01:08:13.501Z,10.6
2016-11-17T01:08:23.495Z,10.6
2016-11-17T01:08:33.479Z,10.6
2016-11-17T01:08:43.483Z,10.6
2016-11-17T01:08:53.471Z,10.5
2016-11-17T01:09:03.474Z,10.6
2016-11-17T01:09:13.459Z,10.6
2016-11-17T01:09:23.460Z,10.6
2016-11-17T01:09:33.448Z,10.6
2016-11-17T01:09:43.448Z,10.5
2016-11-17T01:09:53.436Z,10.5
2016-11-17T01:10:03.432Z,10.6
2016-11-17T01:10:13.432Z,10.6
2016-11-17T01:10:23.427Z,10.6
2016-11-17T01:10:33.420Z,10.5
2016-11-17T01:10:43.416Z,10.6
2016-11-17T01:10:53.409Z,10.5
2016-11-17T01:11:03.402Z,10.5
2016-11-17T01:11:13.390Z,10.5
2016-11-17T01:11:23.389Z,10.5
2016-11-17T01:11:33.386Z,10.6
2016-11-17T01:11:43.382Z,10.4
2016-11-17T01:11:53.367Z,10.6
2016-11-17T01:12:03.364Z,10.5
2016-11-17T01:12:13.359Z,10.5
2016-11-17T01:12:23.356Z,10.5
2016-11-17T01:12:33.350Z,10.5
2016-11-17T01:12:43.342Z,10.4
2016-11-17T01:12:53.332Z,10.4
2016-11-17T01:13:03.333Z,10.6
2016-11-17T01:13:13.320Z,10.6
2016-11-17T01:13:23.322Z,10.5
2016-11-17T01:13:33.313Z,10.5
2016-11-17T01:13:43.311Z,10.5
2016-11-17T01:13:53.293Z,10.5
2016-11-17T01:14:03.291Z,10.5
2016-11-17T01:14:13.292Z,10.5
2016-11-17T01:14:23.286Z,10.5
2016-11-17T01:14:33.281Z,10.5
2016-11-17T01:14:43.272Z,10.5
2016-11-17T01:14:53.269Z,10.6
2016-11-17T01:15:03.256Z,10.4
2016-11-17T01:15:13.249Z,10.5
2016-11-17T01:15:23.250Z,10.5
2016-11-17T01:15:33.261Z,10.5
2016-11-17T01:15:43.229Z,10.4
2016-11-17T01:15:53.231Z,10.5
2016-11-17T01:16:03.223Z,10.4
2016-11-17T01:16:13.219Z,10.5
2016-11-17T01:16:23.205Z,10.4
2016-11-17T01:16:33.207Z,10.4
2016-11-17T01:16:43.205Z,10.4
2016-11-17T01:16:53.191Z,10.5
2016-11-17T01:17:03.190Z,10.5
2016-11-17T01:17:13.186Z,10.5
2016-11-17T01:17:23.183Z,10.4
2016-11-17T01:17:33.175Z,10.5
2016-11-17T01:17:43.162Z,10.4
2016-11-17T01:17:53.163Z,10.4
2016-11-17T01:18:03.157Z,10.4
2016-11-17T01:18:13.149Z,10.4
2016-11-17T01:18:23.148Z,10.5
2016-11-17T01:18:33.134Z,10.4
2016-11-17T01:18:43.133Z,10.5
2016-11-17T01:18:53.129Z,10.4
2016-11-17T01:19:03.121Z,10.4
2016-11-17T01:19:13.114Z,10.4
2016-11-17T01:19:23.104Z,10.4
2016-11-17T01:19:33.102Z,10.5
2016-11-17T01:19:43.095Z,10.4
2016-11-17T01:19:53.094Z,10.4
2016-11-17T01:20:03.089Z,10.4
2016-11-17T01:20:13.092Z,10.4
2016-11-17T01:20:23.075Z,10.4
2016-11-17T01:20:33.068Z,10.4
2016-11-17T01:20:43.064Z,10.4
2016-11-17T01:20:53.054Z,10.4
2016-11-17T01:21:03.054Z,10.4
2016-11-17T01:21:13.048Z,10.4
2016-11-17T01:21:23.040Z,10.4
2016-11-17T01:21:33.035Z,10.3
2016-11-17T01:21:43.018Z,10.4
2016-11-17T01:21:53.017Z,10.4
2016-11-17T01:22:03.015Z,10.4
2016-11-17T01:22:13.010Z,10.4
2016-11-17T01:22:23.006Z,10.4
2016-11-17T01:22:33.001Z,10.4
2016-11-17T01:22:42.987Z,10.3
2016-11-17T01:22:52.983Z,10.3
2016-11-17T01:23:02.977Z,10.4
2016-11-17T01:23:12.972Z,10.4
2016-11-17T01:23:22.965Z,10.4
2016-11-17T01:23:32.965Z,10.4
2016-11-17T01:23:42.960Z,10.4
2016-11-17T01:23:52.946Z,10.3
2016-11-17T01:24:02.945Z,10.4
2016-11-17T01:24:12.935Z,10.4
2016-11-17T01:24:22.936Z,10.4
2016-11-17T01:24:32.927Z,10.4
2016-11-17T01:24:42.918Z,10.4
2016-11-17T01:24:52.916Z,10.4
2016-11-17T01:25:02.907Z,10.3
2016-11-17T01:25:12.907Z,10.4
2016-11-17T01:25:22.902Z,10.4
2016-11-17T01:25:32.895Z,10.4
2016-11-17T01:25:42.881Z,10.3
2016-11-17T01:25:52.881Z,10.3
2016-11-17T01:26:02.871Z,10.4
2016-11-17T01:26:12.868Z,10.4
2016-11-17T01:26:22.866Z,10.4
2016-11-17T01:26:32.860Z,10.4
2016-11-17T01:26:42.847Z,10.4
2016-11-17T01:26:52.848Z,10.4
2016-11-17T01:27:02.840Z,10.3
2016-11-17T01:27:12.836Z,10.4
2016-11-17T01:27:22.823Z,10.4
2016-11-17T01:27:32.818Z,10.4
2016-11-17T01:27:42.810Z,10.4
2016-11-17T01:27:52.812Z,10.4
2016-11-17T01:28:02.805Z,10.4
2016-11-17T01:28:12.800Z,10.3
2016-11-17T01:28:22.788Z,10.4
2016-11-17T01:28:32.790Z,10.4
2016-11-17T01:28:42.784Z,10.3
2016-11-17T01:28:52.775Z,10.3
2016-11-17T01:29:02.771Z,10.3
2016-11-17T01:29:12.759Z,10.3
2016-11-17T01:29:22.759Z,10.3
2016-11-17T01:29:32.754Z,10.3
2016-11-17T01:29:42.747Z,10.3
2016-11-17T01:29:52.743Z,10.3
2016-11-17T01:30:02.729Z,10.3
2016-11-17T01:30:12.729Z,10.3
2016-11-17T01:30:22.727Z,10.3
2016-11-17T01:30:32.719Z,10.3
2016-11-17T01:30:42.707Z,10.3
2016-11-17T01:30:52.701Z,10.3
2016-11-17T01:31:02.695Z,10.3
2016-11-17T01:31:12.691Z,10.3
2016-11-17T01:31:22.692Z,10.3
2016-11-17T01:31:32.681Z,10.3
2016-11-17T01:31:42.679Z,10.3
2016-11-17T01:31:52.667Z,10.3
2016-11-17T01:32:02.664Z,10.3
2016-11-17T01:32:12.654Z,10.2
2016-11-17T01:32:22.655Z,10.2
2016-11-17T01:32:32.648Z,10.3
2016-11-17T01:32:42.647Z,10.3
2016-11-17T01:32:52.634Z,10.3
2016-11-17T01:33:02.632Z,10.3
2016-11-17T01:33:12.620Z,10.3
2016-11-17T01:33:22.609Z,10.3
2016-11-17T01:33:32.607Z,10.3
2016-11-17T01:33:42.608Z,10.3
2016-11-17T01:33:52.601Z,10.3
2016-11-17T01:34:02.596Z,10.3
2016-11-17T01:34:12.588Z,10.3
2016-11-17T01:34:22.584Z,10.2
2016-11-17T01:34:32.573Z,10.2
2016-11-17T01:34:42.573Z,10.2
2016-11-17T01:34:52.557Z,10.2
2016-11-17T01:35:02.553Z,10.2
2016-11-17T01:35:12.557Z,10.2
2016-11-17T01:35:22.547Z,10.2
2016-11-17T01:35:32.542Z,10.3
2016-11-17T01:35:42.538Z,10.3
2016-11-17T01:35:52.531Z,10.2
2016-11-17T01:36:02.525Z,10.2
2016-11-17T01:36:12.518Z,10.3
2016-11-17T01:36:22.511Z,10.2
2016-11-17T01:36:32.504Z,10.2
2016-11-17T01:36:42.504Z,10.2
2016-11-17T01:36:52.498Z,10.2
2016-11-17T01:37:02.487Z,10.3
2016-11-17T01:37:12.475Z,10.2
2016-11-17T01:37:22.479Z,10.2
2016-11-17T01:37:32.474Z,10.3
2016-11-17T01:37:42.469Z,10.2
2016-11-17T01:37:52.460Z,10.3
2016-11-17T01:38:02.449Z,10.2
2016-11-17T01:38:12.446Z,10.2
2016-11-17T01:38:22.440Z,10.3
2016-11-17T01:38:32.435Z,10.2
2016-11-17T01:38:42.433Z,10.3
2016-11-17T01:38:52.426Z,10.3
2016-11-17T01:39:02.416Z,10.3
2016-11-17T01:39:12.407Z,10.3
2016-11-17T01:39:22.403Z,10.3
2016-11-17T01:39:32.403Z,10.3
2016-11-17T01:39:42.396Z,10.2
2016-11-17T01:39:52.393Z,10.2
2016-11-17T01:40:02.387Z,10.2
2016-11-17T01:40:12.370Z,10.2
2016-11-17T01:40:22.367Z,10.2
2016-11-17T01:40:32.369Z,10.2
2016-11-17T01:40:42.352Z,10.2
2016-11-17T01:40:52.354Z,10.3
2016-11-17T01:41:02.344Z,10.2
2016-11-17T01:41:12.336Z,10.2
2016-11-17T01:41:22.339Z,10.2
2016-11-17T01:41:32.335Z,10.2
2016-11-17T01:41:42.316Z,10.2
2016-11-17T01:41:52.315Z,10.2
2016-11-17T01:42:02.312Z,10.2
2016-11-17T01:42:12.298Z,10.2
2016-11-17T01:42:22.301Z,10.2
2016-11-17T01:42:32.291Z,10.2
2016-11-17T01:42:42.282Z,10.2
2016-11-17T01:42:52.282Z,10.3
2016-11-17T01:43:02.279Z,10.3
2016-11-17T01:43:12.275Z,10.3
2016-11-17T01:43:22.268Z,10.3
2016-11-17T01:43:32.263Z,10.3
2016-11-17T01:43:42.255Z,10.2
2016-11-17T01:43:52.252Z,10.2
2016-11-17T01:44:02.247Z,10.2
2016-11-17T01:44:12.233Z,10.2
2016-11-17T01:44:22.229Z,10.2
2016-11-17T01:44:32.218Z,10.2
2016-11-17T01:44:42.220Z,10.2
2016-11-17T01:44:52.215Z,10.2
2016-11-17T01:45:02.211Z,10.2
2016-11-17T01:45:12.197Z,10.2
2016-11-17T01:45:22.198Z,10.2
2016-11-17T01:45:32.193Z,10.2
2016-11-17T01:45:42.179Z,10.2
2016-11-17T01:45:52.178Z,10.2
2016-11-17T01:46:02.178Z,10.2
2016-11-17T01:46:12.162Z,10.2
2016-11-17T01:46:22.160Z,10.2
2016-11-17T01:46:32.152Z,10.2
2016-11-17T01:46:42.153Z,10.2
2016-11-17T01:46:52.135Z,10.2
2016-11-17T01:47:02.137Z,10.3
2016-11-17T01:47:12.135Z,10.3
2016-11-17T01:47:22.122Z,10.2
2016-11-17T01:47:32.114Z,10.3
2016-11-17T01:47:42.112Z,10.3
2016-11-17T01:47:52.109Z,10.3
2016-11-17T01:48:02.104Z,10.3
2016-11-17T01:48:12.096Z,10.3
2016-11-17T01:48:22.090Z,10.3
2016-11-17T01:48:32.088Z,10.3
2016-11-17T01:48:42.082Z,10.3
2016-11-17T01:48:52.076Z,10.2
2016-11-17T01:49:02.069Z,10.3
2016-11-17T01:49:12.063Z,10.2
2016-11-17T01:49:22.059Z,10.2
2016-11-17T01:49:32.050Z,10.3
2016-11-17T01:49:42.035Z,10.3
2016-11-17T01:49:52.034Z,10.3
2016-11-17T01:50:02.037Z,10.2
2016-11-17T01:50:12.029Z,10.2
2016-11-17T01:50:22.023Z,10.2
2016-11-17T01:50:32.016Z,10.2
2016-11-17T01:50:42.012Z,10.2
2016-11-17T01:50:52.004Z,10.2
2016-11-17T01:51:01.998Z,10.3
2016-11-17T01:51:11.986Z,10.2
2016-11-17T01:51:21.977Z,10.2
2016-11-17T01:51:31.975Z,10.3
2016-11-17T01:51:41.975Z,10.2
2016-11-17T01:51:51.968Z,10.3
2016-11-17T01:52:01.962Z,10.2
2016-11-17T01:52:11.956Z,10.2
2016-11-17T01:52:21.953Z,10.3
2016-11-17T01:52:31.938Z,10.2
2016-11-17T01:52:41.939Z,10.3
2016-11-17T01:52:51.930Z,10.2
2016-11-17T01:53:01.923Z,10.2
2016-11-17T01:53:11.924Z,10.2
2016-11-17T01:53:21.917Z,10.2
2016-11-17T01:53:31.912Z,10.2
2016-11-17T01:53:41.905Z,10.2
2016-11-17T01:53:51.891Z,10.3
2016-11-17T01:54:01.895Z,10.2
2016-11-17T01:54:11.885Z,10.2
2016-11-17T01:54:21.872Z,10.2
2016-11-17T01:54:31.877Z,10.2
2016-11-17T01:54:41.870Z,10.2
2016-11-17T01:54:51.866Z,10.2
2016-11-17T01:55:01.855Z,10.2
2016-11-17T01:55:11.851Z,10.2
2016-11-17T01:55:21.846Z,10.2
2016-11-17T01:55:31.841Z,10.2
2016-11-17T01:55:41.833Z,10.2
2016-11-17T01:55:51.829Z,10.2
2016-11-17T01:56:01.825Z,10.2
2016-11-17T01:56:11.813Z,10.2
2016-11-17T01:56:21.805Z,10.2
2016-11-17T01:56:31.805Z,10.2
2016-11-17T01:56:41.801Z,10.2
2016-11-17T01:56:51.794Z,10.2
2016-11-17T01:57:01.781Z,10.2
2016-11-17T01:57:11.781Z,10.2
2016-11-17T01:57:21.778Z,10.2
2016-11-17T01:57:31.773Z,10.2
2016-11-17T01:57:41.766Z,10.2
2016-11-17T01:57:51.756Z,10.2
2016-11-17T01:58:01.753Z,10.2
2016-11-17T01:58:11.744Z,10.2
2016-11-17T01:58:21.735Z,10.2
2016-11-17T01:58:31.732Z,10.2
2016-11-17T01:58:41.724Z,10.2
2016-11-17T01:58:51.724Z,10.1
2016-11-17T01:59:01.707Z,10.1
2016-11-17T01:59:11.710Z,10.1
2016-11-17T01:59:21.708Z,10.2
2016-11-17T01:59:31.694Z,10.1
2016-11-17T01:59:41.695Z,10.2
2016-11-17T01:59:51.683Z,10.2
2016-11-17T02:00:01.678Z,10.1
2016-11-17T02:00:11.676Z,10.2
2016-11-17T02:00:21.668Z,10.1
2016-11-17T02:00:31.655Z,10.2
2016-11-17T02:00:41.660Z,10.1
2016-11-17T02:00:51.655Z,10.1
2016-11-17T02:01:01.648Z,10.2
2016-11-17T02:01:11.638Z,10.2
2016-11-17T02:01:21.635Z,10.1
2016-11-17T02:01:31.628Z,10.1
2016-11-17T02:01:41.620Z,10.1
2016-11-17T02:01:51.620Z,10.1
2016-11-17T02:02:01.609Z,10.1
2016-11-17T02:02:11.602Z,10.1
2016-11-17T02:02:21.596Z,10.1
2016-11-17T02:02:31.593Z,10.2
2016-11-17T02:02:41.588Z,10.2
2016-11-17T02:02:51.582Z,10.1
2016-11-17T02:03:01.581Z,10.1
2016-11-17T02:03:11.568Z,10.1
2016-11-17T02:03:21.567Z,10.1
2016-11-17T02:03:31.555Z,10.1
2016-11-17T02:03:41.554Z,10.2
2016-11-17T02:03:51.548Z,10.2
2016-11-17T02:04:01.541Z,10.2
2016-11-17T02:04:11.537Z,10.2
2016-11-17T02:04:21.528Z,10.1
2016-11-17T02:04:31.525Z,10.2
2016-11-17T02:04:41.518Z,10.1
2016-11-17T02:04:51.508Z,10.2
2016-11-17T02:05:01.508Z,10.1
2016-11-17T02:05:11.503Z,10.1
2016-11-17T02:05:21.495Z,10.2
2016-11-17T02:05:31.483Z,10.1
2016-11-17T02:05:41.479Z,10.1
2016-11-17T02:05:51.474Z,10.1
2016-11-17T02:06:01.472Z,10.2
2016-11-17T02:06:11.466Z,10.1
2016-11-17T02:06:21.458Z,10.2
2016-11-17T02:06:31.444Z,10.2
2016-11-17T02:06:41.448Z,10.1
2016-11-17T02:06:51.433Z,10.2
2016-11-17T02:07:01.429Z,10.1
2016-11-17T02:07:11.431Z,10.1
2016-11-17T02:07:21.423Z,10.1
2016-11-17T02:07:31.420Z,10.2
2016-11-17T02:07:41.404Z,10.1
2016-11-17T02:07:51.405Z,10
2016-11-17T02:08:01.401Z,10.1
2016-11-17T02:08:11.396Z,10
2016-11-17T02:08:21.390Z,10.2
2016-11-17T02:08:31.373Z,10.1
2016-11-17T02:08:41.379Z,10.1
2016-11-17T02:08:51.373Z,10.1
2016-11-17T02:09:01.365Z,10.1
2016-11-17T02:09:11.362Z,10.1
2016-11-17T02:09:21.350Z,10.1
2016-11-17T02:09:31.350Z,10.1
2016-11-17T02:09:41.343Z,10.1
2016-11-17T02:09:51.339Z,10.1
2016-11-17T02:10:01.331Z,10.2
2016-11-17T02:10:11.316Z,10
2016-11-17T02:10:21.317Z,10.1
2016-11-17T02:10:31.315Z,10.1
2016-11-17T02:10:41.309Z,10.1
2016-11-17T02:10:51.301Z,10.1
2016-11-17T02:11:01.285Z,10.1
2016-11-17T02:11:11.295Z,10.1
2016-11-17T02:11:21.286Z,10.1
2016-11-17T02:11:31.279Z,10.1
2016-11-17T02:11:41.271Z,10.2
2016-11-17T02:11:51.261Z,10.1
2016-11-17T02:12:01.258Z,10.2
2016-11-17T02:12:11.255Z,10.2
2016-11-17T02:12:21.238Z,10.1
2016-11-17T02:12:31.245Z,10.1
2016-11-17T02:12:41.230Z,10.2
2016-11-17T02:12:51.228Z,10.1
2016-11-17T02:13:01.226Z,10.1
2016-11-17T02:13:11.220Z,10.2
2016-11-17T02:13:21.213Z,10.1
2016-11-17T02:13:31.206Z,10.1
2016-11-17T02:13:41.194Z,10.2
2016-11-17T02:13:51.192Z,10.1
2016-11-17T02:14:01.187Z,10.1
2016-11-17T02:14:11.185Z,10.2